Time;durP1;ratioP1;P1;durP2;ratioP2;P2;SDS_P1;SDS_P2;PMS_P1;PMS_P2;Temp;Humidity;BMP_temperature;BMP_pressure;BME280_temperature;BME280_humidity;BME280_pressure;Samples;Min_cycle;Max_cycle;Signal;HPM_P1;HPM_P2
2023/12/04 00:01:16;;;;;;;23.98;17.08;;;0.80;99.90;;;;;;5103092;28;20074;-67
2023/12/04 00:03:42;;;;;;;28.48;16.67;;;0.80;99.90;;;;;;5101448;28;20093;-67
2023/12/04 00:06:10;;;;;;;28.65;18.35;;;0.80;99.90;;;;;;5102353;28;20036;-67
2023/12/04 00:08:36;;;;;;;29.58;18.58;;;0.80;99.90;;;;;;5095916;27;20092;-67
2023/12/04 00:11:02;;;;;;;27.58;17.70;;;0.80;99.90;;;;;;5100259;28;20048;-67
2023/12/04 00:13:28;;;;;;;26.70;16.75;;;0.80;99.90;;;;;;5100314;28;20039;-67
2023/12/04 00:15:53;;;;;;;25.05;17.27;;;0.70;99.90;;;;;;5100957;28;20082;-67
2023/12/04 00:18:19;;;;;;;28.45;17.52;;;0.80;99.90;;;;;;5097268;28;20297;-67
2023/12/04 00:20:44;;;;;;;28.08;17.92;;;0.80;99.90;;;;;;5099618;28;20039;-67
2023/12/04 00:23:10;;;;;;;29.15;17.70;;;0.80;99.90;;;;;;5099698;28;20040;-67
2023/12/04 00:25:35;;;;;;;24.52;16.25;;;0.70;99.90;;;;;;5101807;27;20497;-67
2023/12/04 00:28:01;;;;;;;26.95;18.23;;;0.70;99.90;;;;;;5098743;28;20035;-67
2023/12/04 00:30:26;;;;;;;28.73;17.38;;;0.70;99.90;;;;;;5101338;28;20043;-67
2023/12/04 00:32:52;;;;;;;27.27;17.77;;;0.80;99.90;;;;;;5096653;27;20141;-67
2023/12/04 00:35:19;;;;;;;27.33;17.85;;;0.70;99.90;;;;;;5099231;28;20032;-67
2023/12/04 00:37:44;;;;;;;27.48;18.05;;;0.80;99.90;;;;;;5098328;28;20027;-67
2023/12/04 00:40:10;;;;;;;27.38;17.60;;;0.80;99.90;;;;;;5100642;28;20042;-67
2023/12/04 00:42:36;;;;;;;27.50;17.27;;;0.80;99.90;;;;;;5098379;27;20033;-67
2023/12/04 00:45:02;;;;;;;25.60;17.15;;;0.80;99.90;;;;;;5103412;27;20054;-67
2023/12/04 00:47:28;;;;;;;25.75;17.02;;;0.70;99.90;;;;;;5101212;27;20098;-67
2023/12/04 00:49:54;;;;;;;24.73;17.13;;;0.70;99.90;;;;;;5100065;28;20035;-67
2023/12/04 00:52:19;;;;;;;29.10;18.40;;;0.80;99.90;;;;;;5103198;27;20225;-67
2023/12/04 00:54:45;;;;;;;25.75;17.63;;;0.80;99.90;;;;;;5102722;28;20043;-67
2023/12/04 00:57:10;;;;;;;29.10;18.65;;;0.80;99.90;;;;;;5097443;27;20485;-67
2023/12/04 00:59:36;;;;;;;28.10;18.40;;;0.80;99.90;;;;;;5096618;27;20089;-67
2023/12/04 01:02:01;;;;;;;29.85;18.73;;;0.80;99.90;;;;;;5102469;28;20039;-67
2023/12/04 01:04:27;;;;;;;28.17;18.50;;;0.80;99.90;;;;;;5098269;27;21166;-67
2023/12/04 01:06:53;;;;;;;28.85;18.33;;;0.80;99.90;;;;;;5098911;28;20101;-67
2023/12/04 01:09:23;;;;;;;29.42;19.67;;;0.90;99.90;;;;;;5101259;27;20027;-67
2023/12/04 01:11:53;;;;;;;28.88;19.75;;;0.80;99.90;;;;;;5100323;28;20306;-67
2023/12/04 01:14:19;;;;;;;29.13;19.05;;;0.80;99.90;;;;;;5103879;28;20101;-67
2023/12/04 01:16:44;;;;;;;26.83;18.48;;;0.90;99.90;;;;;;5099310;27;20047;-67
2023/12/04 01:19:10;;;;;;;27.90;19.65;;;0.90;99.90;;;;;;5098524;28;20118;-67
2023/12/04 01:21:35;;;;;;;28.70;19.25;;;0.80;99.90;;;;;;5101138;28;20052;-67
2023/12/04 01:24:01;;;;;;;27.30;19.23;;;0.90;99.90;;;;;;5104529;28;20035;-67
2023/12/04 01:26:27;;;;;;;28.30;19.73;;;0.90;99.90;;;;;;5095971;27;20036;-67
2023/12/04 01:28:52;;;;;;;26.40;17.42;;;0.90;99.90;;;;;;5101641;27;20045;-67
2023/12/04 01:31:18;;;;;;;30.73;19.52;;;0.90;99.90;;;;;;5099841;27;20070;-67
2023/12/04 01:33:43;;;;;;;31.15;19.40;;;0.80;99.90;;;;;;5096660;27;20043;-67
2023/12/04 01:36:09;;;;;;;28.67;20.30;;;0.80;99.90;;;;;;5096498;28;20053;-67
2023/12/04 01:38:36;;;;;;;31.15;19.50;;;0.80;99.90;;;;;;5099695;27;20046;-67
2023/12/04 01:41:01;;;;;;;28.58;20.75;;;0.80;99.90;;;;;;5101352;27;20039;-67
2023/12/04 01:43:28;;;;;;;32.13;20.40;;;0.80;99.90;;;;;;5096566;28;20089;-67
2023/12/04 01:45:54;;;;;;;31.35;21.48;;;0.90;99.90;;;;;;5100477;28;20171;-67
2023/12/04 01:48:21;;;;;;;32.78;21.35;;;0.90;99.90;;;;;;5095525;28;20040;-67
2023/12/04 01:50:47;;;;;;;31.88;21.48;;;0.80;99.90;;;;;;5092957;28;20135;-67
2023/12/04 01:53:13;;;;;;;30.02;18.90;;;0.80;99.90;;;;;;5097182;28;20495;-67
2023/12/04 01:55:39;;;;;;;28.75;19.40;;;0.90;99.90;;;;;;5100695;28;20416;-67
2023/12/04 01:58:05;;;;;;;31.33;20.67;;;0.80;99.90;;;;;;5100851;28;20040;-67
2023/12/04 02:00:32;;;;;;;28.33;19.92;;;0.80;99.90;;;;;;5103312;27;20136;-67
2023/12/04 02:02:58;;;;;;;27.48;18.83;;;0.80;99.90;;;;;;5097451;27;20389;-67
2023/12/04 02:05:25;;;;;;;27.90;18.95;;;0.80;99.90;;;;;;5099243;28;20036;-67
2023/12/04 02:07:52;;;;;;;29.48;19.63;;;0.80;99.90;;;;;;5097761;27;20043;-67
2023/12/04 02:10:17;;;;;;;30.50;19.60;;;0.90;99.90;;;;;;5127588;27;20088;-67
2023/12/04 02:12:43;;;;;;;27.85;18.52;;;0.90;99.90;;;;;;5101190;28;20134;-67
2023/12/04 02:15:09;;;;;;;31.27;19.77;;;0.80;99.90;;;;;;5098132;28;20032;-67
2023/12/04 02:17:36;;;;;;;27.13;18.52;;;0.90;99.90;;;;;;5097849;28;20126;-67
2023/12/04 02:20:03;;;;;;;29.13;18.75;;;0.90;99.90;;;;;;5100543;28;20394;-67
2023/12/04 02:22:29;;;;;;;31.40;19.08;;;0.90;99.90;;;;;;5094922;27;20094;-67
2023/12/04 02:24:58;;;;;;;27.38;17.70;;;0.90;99.90;;;;;;5098960;28;20501;-67
2023/12/04 02:27:28;;;;;;;26.13;18.83;;;0.90;99.90;;;;;;5094230;28;20088;-67
2023/12/04 02:29:59;;;;;;;25.38;18.98;;;0.90;99.90;;;;;;5095768;28;20590;-67
2023/12/04 02:32:29;;;;;;;24.92;17.67;;;0.90;99.90;;;;;;5094751;28;20042;-67
2023/12/04 02:34:56;;;;;;;26.90;18.55;;;0.90;99.90;;;;;;5096444;28;20135;-67
2023/12/04 02:37:23;;;;;;;24.10;17.10;;;1.00;99.90;;;;;;5096908;28;20039;-67
2023/12/04 02:39:52;;;;;;;27.65;18.42;;;0.90;99.90;;;;;;5096270;28;20040;-67
2023/12/04 02:42:19;;;;;;;25.83;17.60;;;0.90;99.90;;;;;;5098028;28;20495;-67
2023/12/04 02:44:44;;;;;;;27.60;17.85;;;0.90;99.90;;;;;;5100995;28;20044;-67
2023/12/04 02:47:11;;;;;;;24.52;17.80;;;1.00;99.90;;;;;;5094835;28;20044;-67
2023/12/04 02:49:36;;;;;;;26.05;17.10;;;0.90;99.90;;;;;;5098951;28;20110;-67
2023/12/04 02:52:02;;;;;;;26.88;18.38;;;1.40;99.90;;;;;;5098053;28;20710;-67
2023/12/04 02:54:28;;;;;;;26.83;17.25;;;0.90;99.90;;;;;;5096777;28;20054;-67
2023/12/04 02:56:54;;;;;;;24.00;16.92;;;0.90;99.90;;;;;;5097448;28;20111;-67
2023/12/04 02:59:20;;;;;;;22.48;16.52;;;0.90;99.90;;;;;;5094939;28;20504;-67
2023/12/04 03:01:45;;;;;;;24.92;17.15;;;0.90;99.90;;;;;;5096006;28;20075;-67
2023/12/04 03:04:11;;;;;;;25.52;18.40;;;0.90;99.90;;;;;;5095349;28;20101;-67
2023/12/04 03:06:36;;;;;;;26.90;17.55;;;1.00;99.90;;;;;;5098690;28;20054;-67
2023/12/04 03:09:03;;;;;;;23.15;17.08;;;0.90;99.90;;;;;;5098029;28;20047;-67
2023/12/04 03:11:29;;;;;;;26.58;17.00;;;1.00;99.90;;;;;;5097638;28;20044;-67
2023/12/04 03:13:55;;;;;;;23.58;16.27;;;1.00;99.90;;;;;;5103404;27;20438;-67
2023/12/04 03:16:20;;;;;;;26.25;16.65;;;1.00;99.90;;;;;;5106056;27;20048;-67
2023/12/04 03:18:46;;;;;;;22.67;16.65;;;1.00;99.90;;;;;;5099202;27;20040;-67
2023/12/04 03:21:12;;;;;;;23.73;16.52;;;1.00;99.90;;;;;;5101744;27;20066;-67
2023/12/04 03:23:37;;;;;;;24.40;17.38;;;1.00;99.90;;;;;;5101857;28;20066;-67
2023/12/04 03:26:03;;;;;;;23.45;15.93;;;1.00;99.90;;;;;;5102838;27;20031;-67
2023/12/04 03:28:29;;;;;;;25.17;15.95;;;1.30;99.90;;;;;;5100790;27;20036;-67
2023/12/04 03:30:55;;;;;;;20.70;15.48;;;1.00;99.90;;;;;;5099682;28;20429;-67
2023/12/04 03:33:20;;;;;;;24.77;16.63;;;1.00;99.90;;;;;;5103725;27;20043;-67
2023/12/04 03:35:47;;;;;;;23.67;17.13;;;1.00;99.90;;;;;;5102328;27;20043;-67
2023/12/04 03:38:12;;;;;;;21.75;15.90;;;1.10;99.90;;;;;;5100464;28;20047;-67
2023/12/04 03:40:38;;;;;;;23.45;16.38;;;1.10;99.90;;;;;;5098799;28;20036;-67
2023/12/04 03:43:03;;;;;;;21.00;15.07;;;1.10;99.90;;;;;;5100698;27;20040;-67
2023/12/04 03:45:29;;;;;;;22.50;16.23;;;1.10;99.90;;;;;;5105359;27;20118;-67
2023/12/04 03:47:54;;;;;;;26.48;17.17;;;1.10;99.90;;;;;;5101927;28;20036;-67
2023/12/04 03:50:20;;;;;;;22.05;16.60;;;1.00;99.90;;;;;;5097210;27;20036;-67
2023/12/04 03:52:46;;;;;;;22.73;16.10;;;1.10;99.90;;;;;;5103258;28;20031;-67
2023/12/04 03:55:11;;;;;;;21.85;15.23;;;1.00;99.90;;;;;;5100879;27;20043;-67
2023/12/04 03:57:37;;;;;;;21.08;14.43;;;1.00;99.90;;;;;;5099652;28;20040;-67
2023/12/04 04:00:03;;;;;;;20.30;15.38;;;1.10;99.90;;;;;;5098269;27;20132;-67
2023/12/04 04:02:29;;;;;;;20.23;14.90;;;1.10;99.90;;;;;;5100042;27;20481;-67
2023/12/04 04:04:55;;;;;;;19.65;14.65;;;1.10;99.90;;;;;;5099940;28;20047;-67
2023/12/04 04:07:20;;;;;;;21.95;15.70;;;1.10;99.90;;;;;;5101534;27;20032;-67
2023/12/04 04:09:46;;;;;;;22.45;15.15;;;1.00;99.90;;;;;;5098979;27;20047;-67
2023/12/04 04:12:11;;;;;;;21.00;14.90;;;1.00;99.90;;;;;;5096183;28;20474;-67
2023/12/04 04:14:37;;;;;;;22.83;15.38;;;1.10;99.90;;;;;;5100375;27;20044;-67
2023/12/04 04:17:03;;;;;;;23.05;15.82;;;1.00;99.90;;;;;;5097722;28;20410;-67
2023/12/04 04:19:29;;;;;;;21.98;15.32;;;1.00;99.90;;;;;;5097448;28;20044;-67
2023/12/04 04:21:55;;;;;;;20.50;15.25;;;1.00;99.90;;;;;;5098128;28;20398;-67
2023/12/04 04:24:20;;;;;;;21.13;15.55;;;1.00;99.90;;;;;;5086764;28;20047;-67
2023/12/04 04:26:46;;;;;;;25.92;16.88;;;1.00;99.90;;;;;;5105888;28;20385;-67
2023/12/04 04:29:12;;;;;;;19.58;14.93;;;1.00;99.90;;;;;;5097032;27;20043;-67
2023/12/04 04:31:38;;;;;;;24.20;15.93;;;1.00;99.90;;;;;;5098797;27;20036;-67
2023/12/04 04:34:04;;;;;;;21.63;15.00;;;1.00;99.90;;;;;;5080878;28;20511;-67
2023/12/04 04:36:29;;;;;;;20.33;14.90;;;1.00;99.90;;;;;;5098511;28;20043;-67
2023/12/04 04:38:55;;;;;;;21.13;15.20;;;1.10;99.90;;;;;;5097330;28;20035;-67
2023/12/04 04:41:20;;;;;;;22.13;15.43;;;1.00;99.90;;;;;;5097654;28;20042;-67
2023/12/04 04:43:46;;;;;;;20.52;15.43;;;1.00;99.90;;;;;;5101645;28;20092;-67
2023/12/04 04:46:13;;;;;;;22.73;14.93;;;1.00;99.90;;;;;;5100264;28;20040;-67
2023/12/04 04:48:39;;;;;;;19.77;14.48;;;1.00;99.90;;;;;;5098234;28;20076;-67
2023/12/04 04:51:05;;;;;;;19.02;15.02;;;1.00;99.90;;;;;;5100254;28;20501;-67
2023/12/04 04:53:31;;;;;;;19.23;14.25;;;1.10;99.90;;;;;;5099527;28;20054;-67
2023/12/04 04:55:56;;;;;;;21.08;14.85;;;1.00;99.90;;;;;;5096612;27;20035;-67
2023/12/04 04:58:22;;;;;;;19.08;14.45;;;1.10;99.90;;;;;;5081741;28;20122;-67
2023/12/04 05:00:48;;;;;;;19.48;13.57;;;1.10;99.90;;;;;;5081351;28;20128;-67
2023/12/04 05:03:13;;;;;;;20.88;14.80;;;1.10;99.90;;;;;;5077043;28;20374;-67
2023/12/04 05:05:39;;;;;;;20.45;13.68;;;1.10;99.90;;;;;;5098356;28;20453;-67
2023/12/04 05:08:05;;;;;;;19.98;13.55;;;1.10;99.90;;;;;;5102794;28;20142;-68
2023/12/04 05:10:30;;;;;;;30.50;15.80;;;1.10;99.90;;;;;;5094173;27;20938;-68
2023/12/04 05:12:56;;;;;;;22.48;14.45;;;1.10;99.90;;;;;;5093833;28;20093;-68
2023/12/04 05:15:21;;;;;;;20.65;13.90;;;1.10;99.90;;;;;;5096106;27;20132;-68
2023/12/04 05:17:47;;;;;;;21.17;15.20;;;1.10;99.90;;;;;;5097883;28;20043;-68
2023/12/04 05:20:13;;;;;;;21.50;14.82;;;1.10;99.90;;;;;;5094594;27;20512;-68
2023/12/04 05:22:39;;;;;;;19.77;14.82;;;1.10;99.90;;;;;;5098694;28;20036;-68
2023/12/04 05:25:05;;;;;;;18.73;12.93;;;1.00;99.90;;;;;;5099865;28;20394;-68
2023/12/04 05:27:31;;;;;;;23.38;14.13;;;1.00;99.90;;;;;;5097373;28;20093;-68
2023/12/04 05:29:57;;;;;;;20.65;14.63;;;1.00;99.90;;;;;;5100040;27;20036;-67
2023/12/04 05:32:22;;;;;;;19.55;13.38;;;1.00;99.90;;;;;;5094886;27;20047;-68
2023/12/04 05:34:48;;;;;;;20.10;13.80;;;1.00;99.90;;;;;;5097254;28;20138;-68
2023/12/04 05:37:13;;;;;;;20.98;13.70;;;1.00;99.90;;;;;;5099513;27;20527;-68
2023/12/04 05:39:39;;;;;;;20.05;14.07;;;1.00;99.90;;;;;;5096400;28;20040;-68
2023/12/04 05:42:05;;;;;;;19.95;14.02;;;1.00;99.90;;;;;;5097362;27;20036;-68
2023/12/04 05:44:31;;;;;;;21.42;14.45;;;1.00;99.90;;;;;;5098194;27;20042;-68
2023/12/04 05:46:57;;;;;;;19.13;13.88;;;1.00;99.90;;;;;;5096283;27;20043;-68
2023/12/04 05:49:23;;;;;;;18.27;13.38;;;1.00;99.90;;;;;;5079077;28;20063;-68
2023/12/04 05:51:48;;;;;;;18.95;14.20;;;1.00;99.90;;;;;;5098016;27;20429;-68
2023/12/04 05:54:14;;;;;;;19.00;13.90;;;1.00;99.90;;;;;;5098348;28;20040;-68
2023/12/04 05:56:39;;;;;;;18.10;13.48;;;1.00;99.90;;;;;;5097011;27;20089;-68
2023/12/04 05:59:05;;;;;;;21.30;13.68;;;1.00;99.90;;;;;;5098090;27;20035;-68
2023/12/04 06:01:30;;;;;;;19.17;13.68;;;1.00;99.90;;;;;;5094958;27;20044;-68
2023/12/04 06:03:56;;;;;;;20.92;13.18;;;1.00;99.90;;;;;;5100027;28;20033;-68
2023/12/04 06:06:22;;;;;;;17.48;12.90;;;1.00;99.90;;;;;;5095967;27;20051;-67
2023/12/04 06:08:48;;;;;;;19.10;13.63;;;1.10;99.90;;;;;;5093133;28;20039;-67
2023/12/04 06:11:13;;;;;;;20.75;13.82;;;1.00;99.90;;;;;;5097594;28;20047;-67
2023/12/04 06:13:39;;;;;;;18.40;13.00;;;1.00;99.90;;;;;;5097320;27;20522;-68
2023/12/04 06:16:05;;;;;;;17.95;13.15;;;1.40;99.90;;;;;;5098791;27;20070;-68
2023/12/04 06:18:31;;;;;;;20.30;14.18;;;1.00;99.90;;;;;;5098109;27;20051;-68
2023/12/04 06:20:56;;;;;;;17.13;12.18;;;1.00;99.90;;;;;;5096372;27;20093;-68
2023/12/04 06:23:22;;;;;;;18.95;12.95;;;1.00;99.90;;;;;;5096225;28;20545;-68
2023/12/04 06:25:48;;;;;;;18.15;12.55;;;1.00;99.90;;;;;;5097732;27;20039;-68
2023/12/04 06:28:14;;;;;;;18.27;13.07;;;1.00;99.90;;;;;;5096459;28;20074;-68
2023/12/04 06:30:40;;;;;;;16.85;12.23;;;0.90;99.90;;;;;;5094684;28;20036;-68
2023/12/04 06:33:06;;;;;;;20.65;13.07;;;0.90;99.90;;;;;;5098728;28;20622;-68
2023/12/04 06:35:32;;;;;;;17.35;12.02;;;0.90;99.90;;;;;;5100389;28;20035;-68
2023/12/04 06:38:05;;;;;;;20.27;12.27;;;0.90;99.90;;;;;;5098020;28;20118;-68
2023/12/04 06:40:32;;;;;;;17.42;12.30;;;0.90;99.90;;;;;;5095101;28;20738;-68
2023/12/04 06:42:57;;;;;;;18.30;13.10;;;0.90;99.90;;;;;;5097226;28;20058;-68
2023/12/04 06:45:23;;;;;;;16.23;11.85;;;0.90;99.90;;;;;;5097136;28;20039;-68
2023/12/04 06:47:50;;;;;;;15.57;11.85;;;0.80;99.90;;;;;;5090607;28;20043;-68
2023/12/04 06:50:16;;;;;;;18.48;12.70;;;0.80;99.90;;;;;;5093704;28;20062;-68
2023/12/04 06:52:42;;;;;;;17.20;12.10;;;0.90;99.90;;;;;;5100606;28;20036;-68
2023/12/04 06:55:08;;;;;;;15.77;11.35;;;0.90;99.90;;;;;;5084332;28;20485;-68
2023/12/04 06:57:34;;;;;;;16.15;12.40;;;0.90;99.90;;;;;;5099260;28;20130;-68
2023/12/04 07:00:00;;;;;;;16.33;11.93;;;0.90;99.90;;;;;;5094668;28;20074;-68
2023/12/04 07:02:26;;;;;;;18.10;11.57;;;0.40;99.90;;;;;;5093572;28;20126;-68
2023/12/04 07:04:51;;;;;;;15.32;12.07;;;0.90;99.90;;;;;;5100744;28;20039;-68
2023/12/04 07:07:17;;;;;;;19.00;11.75;;;0.80;99.90;;;;;;5080499;28;20120;-68
2023/12/04 07:09:42;;;;;;;17.45;12.48;;;0.80;99.90;;;;;;5094673;28;20063;-68
2023/12/04 07:12:08;;;;;;;16.42;12.05;;;0.80;99.90;;;;;;5093830;28;20040;-68
2023/12/04 07:14:34;;;;;;;16.65;11.73;;;0.90;99.90;;;;;;5098407;28;20052;-68
2023/12/04 07:17:00;;;;;;;15.27;11.70;;;0.90;99.90;;;;;;5094131;28;20058;-68
2023/12/04 07:19:26;;;;;;;17.10;11.15;;;0.90;99.90;;;;;;5092369;28;20071;-68
2023/12/04 07:21:52;;;;;;;14.68;10.85;;;0.90;99.90;;;;;;5098157;28;20059;-68
2023/12/04 07:24:18;;;;;;;16.70;11.82;;;0.90;99.90;;;;;;5095163;28;20028;-68
2023/12/04 07:26:44;;;;;;;18.38;11.68;;;0.90;99.90;;;;;;5095221;28;20046;-68
2023/12/04 07:29:10;;;;;;;14.45;10.90;;;0.90;99.90;;;;;;5095814;28;20126;-68
2023/12/04 07:31:37;;;;;;;15.65;11.13;;;0.80;99.90;;;;;;5092729;28;20188;-68
2023/12/04 07:34:03;;;;;;;15.77;11.13;;;0.90;99.90;;;;;;5093766;28;20390;-68
2023/12/04 07:36:29;;;;;;;16.55;11.23;;;0.90;99.90;;;;;;5092712;28;20048;-68
2023/12/04 07:38:54;;;;;;;12.70;10.63;;;0.80;99.90;;;;;;5093384;28;20569;-68
2023/12/04 07:41:20;;;;;;;13.48;10.75;;;0.90;99.90;;;;;;5094896;28;20135;-68
2023/12/04 07:43:46;;;;;;;18.00;11.32;;;0.90;99.90;;;;;;5095545;28;20043;-68
2023/12/04 07:46:13;;;;;;;16.10;10.88;;;0.90;99.90;;;;;;5094413;28;20043;-68
2023/12/04 07:48:39;;;;;;;16.15;12.15;;;0.90;99.90;;;;;;5091529;28;20036;-68
2023/12/04 07:51:06;;;;;;;15.85;11.48;;;0.90;99.90;;;;;;5093306;28;20055;-68
2023/12/04 07:53:31;;;;;;;13.63;10.82;;;0.90;99.90;;;;;;5095078;28;20048;-68
2023/12/04 07:56:00;;;;;;;16.75;11.20;;;0.90;99.90;;;;;;5095885;28;20051;-68
2023/12/04 07:58:25;;;;;;;11.85;9.77;;;0.90;99.90;;;;;;5096409;28;20118;-68
2023/12/04 08:00:51;;;;;;;12.30;9.48;;;0.90;99.90;;;;;;5130777;27;20144;-68
2023/12/04 08:03:17;;;;;;;13.93;9.63;;;0.90;99.90;;;;;;5132456;27;20032;-68
2023/12/04 08:05:42;;;;;;;13.07;10.35;;;0.90;99.90;;;;;;5135216;27;20566;-68
2023/12/04 08:08:08;;;;;;;14.52;11.05;;;0.90;99.90;;;;;;5096358;27;20072;-68
2023/12/04 08:10:33;;;;;;;14.07;10.50;;;1.00;99.90;;;;;;5096238;28;20066;-68
2023/12/04 08:13:00;;;;;;;12.43;9.40;;;0.90;99.90;;;;;;5097291;28;20154;-68
2023/12/04 08:15:25;;;;;;;13.80;10.13;;;1.00;99.90;;;;;;5095699;27;20051;-68
2023/12/04 08:17:51;;;;;;;14.23;9.52;;;1.00;99.90;;;;;;5094954;28;20047;-68
2023/12/04 08:20:16;;;;;;;13.73;9.52;;;1.00;99.90;;;;;;5098077;27;20039;-68
2023/12/04 08:22:45;;;;;;;12.48;9.70;;;1.00;99.90;;;;;;5098414;28;20028;-67
2023/12/04 08:25:11;;;;;;;13.77;9.75;;;1.00;99.90;;;;;;5098458;28;20028;-68
2023/12/04 08:27:37;;;;;;;16.30;9.02;;;1.00;99.90;;;;;;5099985;28;20077;-68
2023/12/04 08:30:05;;;;;;;13.60;9.88;;;1.10;99.90;;;;;;5128835;27;20096;-68
2023/12/04 08:32:30;;;;;;;12.00;8.95;;;1.10;99.90;;;;;;5129552;27;20466;-68
2023/12/04 08:34:56;;;;;;;10.88;8.65;;;1.10;99.90;;;;;;5101486;27;20078;-68
2023/12/04 08:37:22;;;;;;;12.48;9.65;;;1.10;99.90;;;;;;5132442;27;20117;-68
2023/12/04 08:39:48;;;;;;;13.57;8.98;;;1.00;99.90;;;;;;5100103;27;20050;-68
2023/12/04 08:42:14;;;;;;;12.32;9.27;;;1.10;99.90;;;;;;5097612;27;20077;-68
2023/12/04 08:44:40;;;;;;;14.52;9.88;;;1.10;99.90;;;;;;5132680;27;20035;-68
2023/12/04 08:47:05;;;;;;;13.13;9.82;;;1.10;99.90;;;;;;5099659;28;20054;-68
2023/12/04 08:49:32;;;;;;;12.65;9.20;;;1.10;99.90;;;;;;5127467;27;20128;-67
2023/12/04 08:51:57;;;;;;;11.60;8.63;;;1.10;99.90;;;;;;5098423;27;20442;-68
2023/12/04 08:54:24;;;;;;;12.50;9.05;;;1.10;99.90;;;;;;5095208;28;20040;-68
2023/12/04 08:56:50;;;;;;;10.73;8.80;;;1.20;99.90;;;;;;5098680;27;20504;-68
2023/12/04 08:59:16;;;;;;;12.82;8.55;;;1.20;99.90;;;;;;5099251;28;20035;-67
2023/12/04 09:01:42;;;;;;;13.95;8.90;;;1.20;99.90;;;;;;5095107;27;20524;-67
2023/12/04 09:04:09;;;;;;;11.40;9.52;;;1.20;99.90;;;;;;5133190;27;20039;-67
2023/12/04 09:06:35;;;;;;;12.07;9.13;;;1.30;99.90;;;;;;5100050;28;20032;-68
2023/12/04 09:09:00;;;;;;;11.90;8.70;;;1.20;99.90;;;;;;5094018;27;20047;-68
2023/12/04 09:11:26;;;;;;;11.68;8.13;;;1.30;99.90;;;;;;5129619;27;20039;-68
2023/12/04 09:13:52;;;;;;;11.27;8.45;;;1.30;99.90;;;;;;5099956;28;20043;-68
2023/12/04 09:16:17;;;;;;;10.32;8.25;;;1.30;99.90;;;;;;5099123;28;20186;-68
2023/12/04 09:18:43;;;;;;;10.63;8.05;;;1.30;99.90;;;;;;5131024;27;20040;-67
2023/12/04 09:21:09;;;;;;;10.27;7.88;;;1.30;99.90;;;;;;5096535;27;20047;-68
2023/12/04 09:23:36;;;;;;;11.20;9.23;;;1.30;99.90;;;;;;5132930;27;20130;-67
2023/12/04 09:26:01;;;;;;;11.05;8.50;;;1.40;99.90;;;;;;5096325;28;20395;-67
2023/12/04 09:28:27;;;;;;;9.95;7.32;;;1.40;99.90;;;;;;5094393;28;20111;-68
2023/12/04 09:30:53;;;;;;;8.93;7.55;;;1.40;99.90;;;;;;5096756;28;20501;-68
2023/12/04 09:33:18;;;;;;;9.85;7.43;;;1.50;99.90;;;;;;5099159;28;20526;-68
2023/12/04 09:35:44;;;;;;;8.38;6.95;;;1.50;99.90;;;;;;5095882;28;20594;-68
2023/12/04 09:38:10;;;;;;;10.70;7.85;;;1.50;99.90;;;;;;5128494;27;20044;-67
2023/12/04 09:40:35;;;;;;;9.38;7.95;;;1.50;99.90;;;;;;5095239;28;20046;-68
2023/12/04 09:43:03;;;;;;;8.43;7.10;;;1.50;99.90;;;;;;5103274;27;20039;-68
2023/12/04 09:45:31;;;;;;;9.65;7.20;;;1.50;99.90;;;;;;5129964;27;20146;-68
2023/12/04 09:47:58;;;;;;;12.05;8.27;;;1.50;99.90;;;;;;5096575;27;20040;-68
2023/12/04 09:50:23;;;;;;;8.75;7.53;;;1.50;99.90;;;;;;5095331;27;20070;-67
2023/12/04 09:52:53;;;;;;;9.20;6.68;;;1.60;99.90;;;;;;5100687;27;20366;-68
2023/12/04 09:55:19;;;;;;;7.43;6.50;;;1.70;99.90;;;;;;5094305;28;20044;-68
2023/12/04 09:57:46;;;;;;;7.43;6.10;;;1.80;99.90;;;;;;5096091;28;20043;-68
2023/12/04 10:00:13;;;;;;;10.65;8.07;;;1.70;99.90;;;;;;5097172;27;20094;-68
2023/12/04 10:02:42;;;;;;;10.43;7.65;;;1.80;99.90;;;;;;5094514;28;20038;-68
2023/12/04 10:05:09;;;;;;;10.40;6.22;;;1.80;99.90;;;;;;5095990;28;20036;-68
2023/12/04 10:07:36;;;;;;;8.63;6.95;;;1.90;99.90;;;;;;5094790;27;20130;-68
2023/12/04 10:10:05;;;;;;;9.70;7.25;;;1.90;99.90;;;;;;5130029;27;20478;-68
2023/12/04 10:12:31;;;;;;;8.63;6.68;;;1.90;99.90;;;;;;5129313;27;20036;-68
2023/12/04 10:15:08;;;;;;;8.85;7.05;;;1.90;99.90;;;;;;5129369;27;20126;-68
2023/12/04 10:17:41;;;;;;;9.75;7.07;;;1.80;99.90;;;;;;5130553;27;20163;-68
2023/12/04 10:20:12;;;;;;;7.47;5.97;;;1.80;99.90;;;;;;5099660;27;20047;-68
2023/12/04 10:22:59;;;;;;;7.95;6.35;;;1.80;99.90;;;;;;5127762;27;20040;-68
2023/12/04 10:25:28;;;;;;;9.02;6.95;;;1.90;99.90;;;;;;5099333;28;20408;-68
2023/12/04 10:27:54;;;;;;;10.50;6.55;;;1.90;99.90;;;;;;5091952;28;20176;-68
2023/12/04 10:30:27;;;;;;;8.38;6.88;;;1.80;99.90;;;;;;5094603;28;20520;-68
2023/12/04 10:33:04;;;;;;;8.48;6.57;;;1.80;99.90;;;;;;5131149;27;20047;-68
2023/12/04 10:35:31;;;;;;;9.30;6.55;;;1.80;99.90;;;;;;5099139;27;20066;-68
2023/12/04 10:37:59;;;;;;;8.82;7.43;;;1.80;99.90;;;;;;5128911;27;20050;-68
2023/12/04 10:40:29;;;;;;;8.35;5.95;;;1.90;99.90;;;;;;5097898;28;20488;-68
2023/12/04 10:43:17;;;;;;;8.80;7.13;;;1.90;99.90;;;;;;5102325;27;20061;-68
2023/12/04 10:45:45;;;;;;;8.35;6.53;;;1.80;99.90;;;;;;5127530;27;20059;-68
2023/12/04 10:48:11;;;;;;;8.75;6.32;;;1.90;99.90;;;;;;5094738;28;20044;-68
2023/12/04 10:50:38;;;;;;;9.32;5.80;;;2.00;99.90;;;;;;5098043;28;20092;-68
2023/12/04 10:53:05;;;;;;;6.57;5.60;;;1.90;99.90;;;;;;5098952;28;20083;-69
2023/12/04 10:55:32;;;;;;;10.20;6.20;;;2.00;99.90;;;;;;5098368;28;20078;-68
2023/12/04 10:57:59;;;;;;;7.13;6.32;;;2.00;99.90;;;;;;5131214;27;20043;-68
2023/12/04 11:00:27;;;;;;;7.60;6.00;;;2.00;99.90;;;;;;5095742;28;20405;-68
2023/12/04 11:02:56;;;;;;;12.35;6.70;;;2.10;99.90;;;;;;5130122;27;20512;-68
2023/12/04 11:05:24;;;;;;;8.70;5.90;;;2.10;99.90;;;;;;5128482;27;20036;-68
2023/12/04 11:07:59;;;;;;;9.07;6.43;;;2.10;99.90;;;;;;5093781;28;20442;-68
2023/12/04 11:10:28;;;;;;;7.95;6.28;;;2.10;99.90;;;;;;5126607;27;20040;-68
2023/12/04 11:13:03;;;;;;;6.22;5.63;;;2.10;99.90;;;;;;5094240;28;20061;-69
2023/12/04 11:15:34;;;;;;;6.82;5.68;;;2.10;99.90;;;;;;5096626;28;20070;-68
2023/12/04 11:18:01;;;;;;;7.85;6.53;;;2.10;99.90;;;;;;5093695;28;20035;-68
2023/12/04 11:20:31;;;;;;;6.88;5.57;;;2.10;99.90;;;;;;5095488;28;20051;-68
2023/12/04 11:22:57;;;;;;;7.07;5.63;;;2.20;99.90;;;;;;5094471;28;20052;-68
2023/12/04 11:25:24;;;;;;;6.55;5.57;;;2.20;99.90;;;;;;5095759;28;20063;-68
2023/12/04 11:27:52;;;;;;;6.90;5.55;;;2.20;99.90;;;;;;5093249;28;20040;-68
2023/12/04 11:30:18;;;;;;;6.47;5.75;;;2.20;99.90;;;;;;5097694;28;20049;-68
2023/12/04 11:32:45;;;;;;;6.05;5.13;;;2.20;99.90;;;;;;5099168;28;20043;-68
2023/12/04 11:35:18;;;;;;;8.73;5.90;;;2.20;99.90;;;;;;5132359;27;20081;-68
2023/12/04 11:37:47;;;;;;;6.45;5.10;;;2.20;99.90;;;;;;5103667;28;20047;-68
2023/12/04 11:40:16;;;;;;;6.65;5.20;;;2.20;99.90;;;;;;5098167;28;20043;-68
2023/12/04 11:42:42;;;;;;;6.70;5.68;;;2.30;99.90;;;;;;5133958;27;20063;-68
2023/12/04 11:45:09;;;;;;;8.13;5.57;;;2.20;99.90;;;;;;5105078;28;21725;-68
2023/12/04 11:47:56;;;;;;;6.55;4.90;;;2.30;99.90;;;;;;5102462;28;20037;-68
2023/12/04 11:50:24;;;;;;;8.38;5.22;;;2.20;99.90;;;;;;5099075;28;20065;-68
2023/12/04 11:52:50;;;;;;;7.07;5.20;;;2.30;99.90;;;;;;5132526;27;20039;-68
2023/12/04 11:55:17;;;;;;;6.18;5.25;;;2.30;99.90;;;;;;5100757;28;20085;-68
2023/12/04 11:57:43;;;;;;;6.95;5.72;;;2.20;99.90;;;;;;5100246;28;20058;-68
2023/12/04 12:00:16;;;;;;;5.65;4.70;;;2.30;99.90;;;;;;5133403;27;20035;-68
2023/12/04 12:03:08;;;;;;;7.43;6.05;;;2.30;99.90;;;;;;5102292;28;20937;-68
2023/12/04 12:05:35;;;;;;;10.85;8.57;;;2.40;99.90;;;;;;5086438;28;20071;-68
2023/12/04 12:08:05;;;;;;;82.50;52.42;;;2.40;99.90;;;;;;5105262;27;20393;-68
2023/12/04 12:10:31;;;;;;;55.80;36.53;;;2.40;99.90;;;;;;5099499;27;20071;-68
2023/12/04 12:12:57;;;;;;;40.78;29.17;;;2.50;99.90;;;;;;5101258;28;20367;-68
2023/12/04 12:15:22;;;;;;;24.48;19.08;;;2.50;99.90;;;;;;5099504;27;20048;-68
2023/12/04 12:17:50;;;;;;;6.22;5.05;;;2.60;99.90;;;;;;5095110;28;20428;-68
2023/12/04 12:20:16;;;;;;;6.72;6.03;;;2.50;99.90;;;;;;5099989;27;20489;-68
2023/12/04 12:22:43;;;;;;;7.60;6.72;;;2.60;99.90;;;;;;5098607;27;20080;-69
2023/12/04 12:25:10;;;;;;;6.05;5.45;;;2.70;99.90;;;;;;5127518;27;20036;-69
2023/12/04 12:27:37;;;;;;;6.75;5.95;;;2.60;99.90;;;;;;5129316;27;20478;-69
2023/12/04 12:30:04;;;;;;;9.70;5.80;;;2.60;99.90;;;;;;5130732;27;20040;-69
2023/12/04 12:32:31;;;;;;;6.18;5.20;;;2.70;99.90;;;;;;5099852;28;20048;-69
2023/12/04 12:34:56;;;;;;;7.03;5.78;;;2.60;99.90;;;;;;5132346;27;20052;-69
2023/12/04 12:37:22;;;;;;;7.53;6.10;;;2.60;99.90;;;;;;5099914;27;20054;-69
2023/12/04 12:39:48;;;;;;;7.50;5.00;;;2.60;99.90;;;;;;5094381;28;20039;-69